createdAt,value
2022-10-30T09:44:24.853Z,22.23
2022-10-30T09:45:34.184Z,22.25
2022-10-30T09:46:12.264Z,22.22
2022-10-30T09:47:12.432Z,22.26
2022-10-30T09:48:12.309Z,22.26
2022-10-30T09:49:12.345Z,22.39
2022-10-30T09:50:12.388Z,22.35
2022-10-30T09:51:12.373Z,22.36
2022-10-30T09:52:12.646Z,22.36
2022-10-30T09:53:12.640Z,22.43
2022-10-30T09:54:12.501Z,22.5
2022-10-30T15:20:58.553Z,20.02
2022-10-30T15:21:58.494Z,19.92
2022-10-30T15:22:58.931Z,19.92
2022-10-30T15:23:58.605Z,19.7
2022-10-30T15:24:58.471Z,19.73
2022-10-30T15:26:00.116Z,19.59
2022-10-30T15:26:58.401Z,19.52
2022-10-30T15:27:58.794Z,19.36
2022-10-30T15:28:59.171Z,19.31
2022-10-30T15:29:58.625Z,19.27
2022-10-30T15:30:58.639Z,19.24
2022-10-30T15:34:22.187Z,18.99
2022-10-30T15:35:09.599Z,18.93
2022-10-30T15:36:10.860Z,18.84
2022-10-30T15:37:09.917Z,18.78
2022-10-30T15:38:09.724Z,18.8
2022-10-30T15:39:09.942Z,18.66
2022-10-30T15:41:09.739Z,18.47
2022-10-30T15:42:10.071Z,18.4
2022-10-30T15:43:10.068Z,18.41
2022-10-30T15:45:09.768Z,18.2
2022-10-30T15:46:10.186Z,18.03
2022-10-30T15:47:09.783Z,18.03
2022-10-30T15:48:10.113Z,18.03
2022-10-30T15:50:10.006Z,17.85
2022-10-30T15:51:10.119Z,17.82
2022-10-30T15:52:10.563Z,17.72
2022-10-30T15:53:10.026Z,17.74
2022-10-30T15:54:10.033Z,17.59
2022-10-30T15:55:10.245Z,17.65
2022-10-30T15:56:19.907Z,17.57
2022-10-30T15:58:10.064Z,17.38
2022-10-30T15:58:22.246Z,17.42
2022-10-30T15:59:20.943Z,17.38
2022-10-30T16:00:20.336Z,17.24
2022-10-30T16:01:20.772Z,17.14
2022-10-30T16:02:20.966Z,17.15
2022-10-30T16:03:20.360Z,17.12
2022-10-30T16:04:20.654Z,17.06
2022-10-30T16:05:20.470Z,16.94
2022-10-30T16:06:21.387Z,16.97
2022-10-30T16:09:21.117Z,16.81
2022-10-30T16:10:20.382Z,16.76
2022-10-30T16:11:20.806Z,16.71
2022-10-30T16:12:20.704Z,16.75
2022-10-30T16:13:21.334Z,16.6
2022-10-30T16:14:20.521Z,16.54
2022-10-30T16:15:20.982Z,16.49
2022-10-30T16:16:21.130Z,16.47
2022-10-30T16:17:20.945Z,16.38
2022-10-30T16:18:21.152Z,16.41
2022-10-30T16:19:23.767Z,16.29
2022-10-30T16:21:20.966Z,16.16
2022-10-30T16:22:20.564Z,16.16
2022-10-30T16:23:21.390Z,16.04
2022-10-30T16:24:20.985Z,16.01
2022-10-30T16:25:22.658Z,16.04
2022-10-30T16:26:20.645Z,15.98
2022-10-30T16:27:20.768Z,15.91
2022-10-30T16:28:20.891Z,15.86
2022-10-30T16:29:20.718Z,15.82
2022-10-30T16:30:20.737Z,15.79
2022-10-30T16:31:20.871Z,15.75
2022-10-30T16:32:20.531Z,15.68
2022-10-30T16:33:21.437Z,15.64
2022-10-30T16:34:21.131Z,15.64
2022-10-30T16:35:21.088Z,15.58
2022-10-30T16:36:21.106Z,15.51
2022-10-30T16:37:20.857Z,15.44
2022-10-30T16:38:20.869Z,15.4
2022-10-30T16:39:21.208Z,15.33
2022-10-30T16:40:21.223Z,15.28
2022-10-30T16:41:28.225Z,15.28
2022-10-30T16:42:21.208Z,15.25
2022-10-30T16:43:20.697Z,15.21
2022-10-30T16:44:20.974Z,15.18
2022-10-30T16:45:20.726Z,15.17
2022-10-30T16:46:20.773Z,15.11
2022-10-30T16:47:21.085Z,15.14
2022-10-30T16:48:20.993Z,15.04
2022-10-30T16:49:21.317Z,15.09
2022-10-30T16:50:21.174Z,14.92
2022-10-30T16:51:21.333Z,14.96
2022-10-30T16:52:21.355Z,15
2022-10-30T16:53:21.114Z,14.94
2022-10-30T16:54:21.150Z,14.82
2022-10-30T16:55:21.164Z,14.82
2022-10-30T16:56:21.426Z,14.78
2022-10-30T16:57:21.237Z,14.77
2022-10-30T16:58:21.635Z,14.72
2022-10-30T16:59:21.202Z,14.72
2022-10-30T17:00:24.358Z,14.6
2022-10-30T17:01:21.762Z,14.66
2022-10-30T17:02:22.157Z,14.53
2022-10-30T17:03:21.114Z,14.58
2022-10-30T17:04:21.759Z,14.51
2022-10-30T17:05:21.489Z,14.54
2022-10-30T17:06:21.183Z,14.41
2022-10-30T17:07:21.459Z,14.43
2022-10-30T17:08:21.376Z,14.36
2022-10-30T17:09:21.543Z,14.37
2022-10-30T17:10:22.168Z,14.3
2022-10-30T17:11:21.860Z,14.3
2022-10-30T17:12:21.361Z,14.23
2022-10-30T17:13:21.984Z,14.23
2022-10-30T17:14:21.322Z,14.15
2022-10-30T17:15:21.895Z,14.22
2022-10-30T17:16:28.951Z,14.25
2022-10-30T17:17:21.356Z,14.15
2022-10-30T17:18:21.961Z,14.11
2022-10-30T17:19:21.278Z,14.11
2022-10-30T17:20:22.711Z,14.07
2022-10-30T17:21:21.481Z,14
2022-10-30T17:22:21.762Z,13.93
2022-10-30T17:23:21.736Z,13.95
2022-10-30T17:24:21.768Z,13.96
2022-10-30T17:25:21.980Z,13.92
2022-10-30T17:26:22.943Z,13.93
2022-10-30T17:27:21.888Z,13.89
2022-10-30T17:28:21.525Z,13.9
2022-10-30T17:29:22.706Z,13.85
2022-10-30T17:30:21.865Z,13.78
2022-10-30T17:31:21.935Z,13.78
2022-10-30T17:32:22.393Z,13.86
2022-10-30T17:33:21.856Z,13.75
2022-10-30T17:34:21.640Z,13.79
2022-10-30T17:35:21.569Z,13.79
2022-10-30T17:36:21.797Z,13.68
2022-10-30T17:37:22.407Z,13.67
2022-10-30T17:38:21.563Z,13.63
2022-10-30T17:39:21.578Z,13.62
2022-10-30T17:40:21.848Z,13.59
2022-10-30T17:41:22.084Z,13.5
2022-10-30T17:42:22.083Z,13.52
2022-10-30T17:43:22.779Z,13.39
2022-10-30T17:44:22.450Z,13.5
2022-10-30T17:45:23.172Z,13.42
2022-10-30T17:46:25.068Z,13.37
2022-10-30T17:47:21.747Z,13.37
2022-10-30T17:48:21.960Z,13.31
2022-10-30T17:49:21.728Z,13.38
2022-10-30T17:50:22.022Z,13.37
2022-10-30T17:51:21.766Z,13.33
2022-10-30T17:52:22.015Z,13.33
2022-10-30T17:53:22.331Z,13.27
2022-10-30T17:54:21.933Z,13.23
2022-10-30T17:55:22.085Z,13.23
2022-10-30T17:56:22.085Z,13.22
2022-10-30T17:57:22.143Z,13.18
2022-10-30T17:58:21.884Z,13.13
2022-10-30T17:59:22.375Z,13.18
2022-10-30T18:00:22.518Z,13.04
2022-10-30T18:01:22.756Z,13.09
2022-10-30T18:02:22.437Z,13.01
2022-10-30T18:03:21.939Z,13.05
2022-10-30T18:04:25.330Z,13.03
2022-10-30T18:05:22.240Z,13.08
2022-10-30T18:06:21.964Z,13.01
2022-10-30T18:07:22.189Z,13
2022-10-30T18:08:22.016Z,13
2022-10-30T18:09:22.081Z,13
2022-10-30T18:10:22.942Z,12.93
2022-10-30T18:11:23.353Z,12.93
2022-10-30T18:12:22.321Z,12.94
2022-10-30T18:13:22.074Z,12.97
2022-10-30T18:14:22.284Z,12.87
2022-10-30T18:15:22.381Z,12.83
2022-10-30T18:16:22.284Z,12.85
2022-10-30T18:17:22.773Z,12.82
2022-10-30T18:18:22.402Z,12.79
2022-10-30T18:19:22.712Z,12.78
2022-10-30T18:20:22.160Z,12.79
2022-10-30T18:21:22.173Z,12.8
2022-10-30T18:22:22.232Z,12.78
2022-10-30T18:23:55.908Z,12.78
2022-10-30T18:24:22.723Z,12.79
2022-10-30T18:25:22.519Z,12.85
2022-10-30T18:26:22.634Z,12.8
2022-10-30T18:27:22.561Z,12.7
2022-10-30T18:28:22.674Z,12.73
2022-10-30T18:29:22.339Z,12.68
2022-10-30T18:30:22.373Z,12.67
2022-10-30T18:31:22.726Z,12.68
2022-10-30T18:32:22.418Z,12.65
2022-10-30T18:33:22.750Z,12.62
2022-10-30T18:34:22.425Z,12.64
2022-10-30T18:35:22.463Z,12.64
2022-10-30T18:36:22.535Z,12.57
2022-10-30T18:37:22.426Z,12.57
2022-10-30T18:38:22.888Z,12.43
2022-10-30T18:39:22.394Z,12.39
2022-10-30T18:40:26.979Z,12.42
2022-10-30T18:41:22.764Z,12.42
2022-10-30T18:42:22.429Z,12.37
2022-10-30T18:43:22.901Z,12.43
2022-10-30T18:44:22.895Z,12.28
2022-10-30T18:45:22.790Z,12.31
2022-10-30T18:46:22.944Z,12.35
2022-10-30T18:47:23.064Z,12.24
2022-10-30T18:48:22.892Z,12.22
2022-10-30T18:49:23.004Z,12.2
2022-10-30T18:50:23.053Z,12.22
2022-10-30T18:51:22.706Z,12.25
2022-10-30T18:52:23.133Z,12.17
2022-10-30T18:53:23.191Z,12.18
2022-10-30T18:54:22.723Z,12.15
2022-10-30T18:55:22.889Z,12.18
2022-10-30T18:56:22.906Z,12.03
2022-10-30T18:57:22.730Z,12.03
2022-10-30T18:58:22.926Z,12.04
2022-10-30T18:59:22.922Z,11.99
2022-10-30T19:00:22.959Z,11.95
2022-10-30T19:01:23.341Z,12
2022-10-30T19:02:23.310Z,11.88
2022-10-30T19:03:23.636Z,12.02
2022-10-30T19:04:27.289Z,11.91
2022-10-30T19:05:22.799Z,11.9
2022-10-30T19:06:22.767Z,11.88
2022-10-30T19:07:23.315Z,11.97
2022-10-30T19:08:23.005Z,11.9
2022-10-30T19:09:23.036Z,11.83
2022-10-30T19:10:23.869Z,11.77
2022-10-30T19:11:31.987Z,11.83
2022-10-30T19:12:23.699Z,11.72
2022-10-30T19:13:24.193Z,11.75
2022-10-30T19:14:23.944Z,11.84
2022-10-30T19:15:22.892Z,11.77
2022-10-30T19:16:23.436Z,11.77
2022-10-30T19:17:23.760Z,11.66
2022-10-30T19:18:22.953Z,11.68
2022-10-30T19:19:23.547Z,11.75
2022-10-30T19:20:58.791Z,11.68
2022-10-30T19:21:23.729Z,11.65
2022-10-30T19:22:23.070Z,11.63
2022-10-30T19:23:23.108Z,11.55
2022-10-30T19:24:23.402Z,11.55
2022-10-30T19:25:23.496Z,11.54
2022-10-30T19:26:23.447Z,11.52
2022-10-30T19:27:23.136Z,11.55
2022-10-30T19:28:23.778Z,11.5
2022-10-30T19:29:23.741Z,11.48
2022-10-30T19:30:23.589Z,11.44
2022-10-30T19:31:23.224Z,11.43
2022-10-30T19:32:23.215Z,11.4
2022-10-30T19:33:23.362Z,11.43
2022-10-30T19:34:23.499Z,11.33
2022-10-30T19:35:23.626Z,11.36
2022-10-30T19:36:23.466Z,11.33
2022-10-30T19:37:23.488Z,11.33
2022-10-30T19:38:23.590Z,11.33
2022-10-30T19:39:23.295Z,11.27
2022-10-30T19:40:23.226Z,11.23
2022-10-30T19:41:23.502Z,11.17
2022-10-30T19:42:23.963Z,11.19
2022-10-30T19:43:23.358Z,11.22
2022-10-30T19:44:23.516Z,11.22
2022-10-30T19:45:23.635Z,11.26
2022-10-30T19:46:23.477Z,11.22
2022-10-30T19:47:23.394Z,11.22
2022-10-30T19:49:03.807Z,11.26
2022-10-30T19:49:23.401Z,11.26
2022-10-30T19:50:23.693Z,11.3
2022-10-30T19:51:23.812Z,11.25
2022-10-30T19:52:29.545Z,11.15
2022-10-30T19:53:23.566Z,11.15
2022-10-30T19:54:23.522Z,11.19
2022-10-30T19:55:23.573Z,11.17
2022-10-30T19:56:23.512Z,11.07
2022-10-30T19:57:23.452Z,11.12
2022-10-30T19:58:29.634Z,11.05
2022-10-30T19:59:24.096Z,11.04
2022-10-30T20:00:24.058Z,11.02
2022-10-30T20:01:24.321Z,10.99
2022-10-30T20:02:23.953Z,11
2022-10-30T20:03:24.281Z,10.97
2022-10-30T20:04:24.398Z,10.87
2022-10-30T20:05:23.759Z,10.94
2022-10-30T20:06:23.830Z,10.94
2022-10-30T20:07:24.017Z,10.92
2022-10-30T20:08:23.867Z,10.9
2022-10-30T20:09:24.297Z,10.79
2022-10-30T20:10:23.945Z,10.89
2022-10-30T20:11:24.083Z,10.81
2022-10-30T20:12:23.608Z,10.81
2022-10-30T20:13:24.074Z,10.93
2022-10-30T20:14:23.927Z,10.79
2022-10-30T20:15:23.756Z,10.79
2022-10-30T20:16:23.900Z,10.89
2022-10-30T20:17:23.688Z,10.9
2022-10-30T20:18:23.862Z,10.86
2022-10-30T20:19:24.055Z,10.76
2022-10-30T20:20:24.043Z,10.82
2022-10-30T20:21:24.606Z,10.78
2022-10-30T20:22:30.698Z,10.76
2022-10-30T20:23:24.168Z,10.75
2022-10-30T20:24:24.219Z,10.71
2022-10-30T20:25:23.802Z,10.64
2022-10-30T20:26:23.892Z,10.63
2022-10-30T20:27:24.745Z,10.61
2022-10-30T20:28:24.652Z,10.61
2022-10-30T20:29:24.490Z,10.68
2022-10-30T20:30:24.285Z,10.61
2022-10-30T20:31:23.933Z,10.67
2022-10-30T20:32:23.829Z,10.67
2022-10-30T20:33:24.019Z,10.67
2022-10-30T20:34:23.851Z,10.59
2022-10-30T20:35:24.386Z,10.54
2022-10-30T20:36:24.249Z,10.56
2022-10-30T20:37:24.218Z,10.57
2022-10-30T20:38:23.935Z,10.56
2022-10-30T20:39:24.990Z,10.56
2022-10-30T20:40:24.242Z,10.53
2022-10-30T20:41:24.501Z,10.49
2022-10-30T20:42:24.186Z,10.51
2022-10-30T20:43:23.998Z,10.48
2022-10-30T20:44:24.116Z,10.4
2022-10-30T20:45:24.096Z,10.34
2022-10-30T20:46:24.495Z,10.3
2022-10-30T20:47:24.680Z,10.33
2022-10-30T20:48:24.284Z,10.3
2022-10-30T20:49:25.884Z,10.28
2022-10-30T20:50:25.378Z,10.28
2022-10-30T20:51:24.843Z,10.23
2022-10-30T20:52:24.716Z,10.23
2022-10-30T20:53:24.822Z,10.13
2022-10-30T20:54:24.376Z,10.15
2022-10-30T20:55:24.681Z,10.15
2022-10-30T20:56:24.753Z,10.1
2022-10-30T20:57:25.562Z,10.2
2022-10-30T20:58:24.868Z,10.13
2022-10-30T20:59:24.449Z,10.17
2022-10-30T21:00:25.193Z,10.2
2022-10-30T21:01:24.701Z,10.23
2022-10-30T21:02:25.409Z,10.3
2022-10-30T21:03:24.322Z,10.35
2022-10-30T21:04:24.378Z,10.35
2022-10-30T21:05:48.072Z,10.38
2022-10-30T21:06:24.398Z,10.34
2022-10-30T21:07:24.886Z,10.31
2022-10-30T21:08:24.388Z,10.37
2022-10-30T21:09:24.626Z,10.34
2022-10-30T21:10:30.640Z,10.31
2022-10-30T21:11:25.010Z,10.33
2022-10-30T21:12:24.879Z,10.25
2022-10-30T21:13:25.263Z,10.28
2022-10-30T21:14:24.432Z,10.28
2022-10-30T21:15:24.365Z,10.26
2022-10-30T21:16:24.467Z,10.23
2022-10-30T21:17:25.385Z,10.3
2022-10-30T21:18:24.387Z,10.26
2022-10-30T21:19:24.508Z,10.31
2022-10-30T21:20:24.943Z,10.28
2022-10-30T21:21:29.703Z,10.23
2022-10-30T21:22:24.780Z,10.2
2022-10-30T21:23:24.746Z,10.22
2022-10-30T21:24:24.622Z,10.25
2022-10-30T21:25:24.883Z,10.26
2022-10-30T21:26:25.035Z,10.15
2022-10-30T21:27:24.898Z,10.16
2022-10-30T21:28:25.869Z,10.13
2022-10-30T21:29:24.625Z,10.1
2022-10-30T21:30:24.747Z,10.12
2022-10-30T21:31:24.757Z,10.05
2022-10-30T21:32:24.539Z,10.07
2022-10-30T21:33:24.551Z,10.02
2022-10-30T21:34:24.927Z,9.98
2022-10-30T21:35:24.554Z,9.95
2022-10-30T21:36:25.113Z,9.94
2022-10-30T21:37:24.580Z,9.94
2022-10-30T21:38:24.596Z,10.01
2022-10-30T21:39:24.862Z,9.94
2022-10-30T21:40:25.246Z,9.97
2022-10-30T21:41:25.221Z,9.92
2022-10-30T21:42:25.512Z,9.89
2022-10-30T21:43:25.193Z,9.91
2022-10-30T21:44:25.569Z,9.87
2022-10-30T21:45:24.689Z,9.97
2022-10-30T21:46:24.704Z,9.91
2022-10-30T21:47:25.249Z,9.91
2022-10-30T21:48:24.963Z,9.91
2022-10-30T21:49:25.053Z,9.97
2022-10-30T21:50:24.730Z,9.99
2022-10-30T21:51:24.745Z,9.94
2022-10-30T21:52:24.803Z,9.98
2022-10-30T21:53:24.761Z,9.97
2022-10-30T21:54:24.776Z,9.95
2022-10-30T21:55:25.294Z,9.97
2022-10-30T21:56:25.095Z,9.95
2022-10-30T21:57:25.200Z,9.97
2022-10-30T21:58:25.011Z,9.98
2022-10-30T21:59:25.553Z,10.01
2022-10-30T22:00:25.520Z,10.12
2022-10-30T22:01:25.868Z,10.09
2022-10-30T22:02:25.417Z,10.16
2022-10-30T22:03:25.136Z,10.1
2022-10-30T22:04:24.930Z,10.13
2022-10-30T22:05:24.912Z,10.12
2022-10-30T22:06:24.898Z,10.15
2022-10-30T22:07:24.907Z,10.2
2022-10-30T22:08:25.181Z,10.16
2022-10-30T22:09:24.944Z,10.12
2022-10-30T22:10:24.978Z,10.12
2022-10-30T22:11:24.951Z,10.12
2022-10-30T22:12:24.962Z,10.16
2022-10-30T22:13:25.491Z,10.16
2022-10-30T22:14:25.241Z,10.12
2022-10-30T22:15:25.390Z,10.1
2022-10-30T22:16:25.323Z,10.09
2022-10-30T22:17:25.023Z,9.97
